createdAt,value
2022-09-27T00:01:12.140Z,11.77
2022-09-27T00:03:42.992Z,11.76
2022-09-27T00:06:22.671Z,11.74
2022-09-27T00:08:50.431Z,11.71
2022-09-27T00:11:26.083Z,11.70
2022-09-27T00:13:55.698Z,11.66
2022-09-27T00:16:25.838Z,11.60
2022-09-27T00:19:00.003Z,11.55
2022-09-27T00:21:30.036Z,11.52
2022-09-27T00:23:59.099Z,11.48
2022-09-27T00:26:27.934Z,11.42
2022-09-27T00:28:56.227Z,11.38
2022-09-27T00:31:32.228Z,11.33
2022-09-27T00:34:02.247Z,11.24
2022-09-27T00:36:31.870Z,11.16
2022-09-27T00:39:00.595Z,11.09
2022-09-27T00:41:36.225Z,11.03
2022-09-27T00:44:26.267Z,10.97
2022-09-27T00:47:18.700Z,10.93
2022-09-27T00:49:50.780Z,10.89
2022-09-27T00:52:23.185Z,10.90
2022-09-27T00:54:56.548Z,10.87
2022-09-27T00:57:24.900Z,10.84
2022-09-27T01:00:05.379Z,10.87
2022-09-27T01:02:35.327Z,10.91
2022-09-27T01:05:06.013Z,10.93
2022-09-27T01:07:34.970Z,10.91
2022-09-27T01:10:03.897Z,10.92
2022-09-27T01:12:34.858Z,10.94
2022-09-27T01:15:05.697Z,10.92
2022-09-27T01:17:56.766Z,10.89
2022-09-27T01:20:52.861Z,10.85
2022-09-27T01:23:20.637Z,10.82
2022-09-27T01:26:16.971Z,10.77
2022-09-27T01:29:00.262Z,10.73
2022-09-27T01:31:35.834Z,10.73
2022-09-27T01:34:08.561Z,10.74
2022-09-27T01:37:07.259Z,10.75
2022-09-27T01:39:45.131Z,10.74
2022-09-27T01:43:04.793Z,10.72
2022-09-27T01:45:41.873Z,10.72
2022-09-27T01:48:24.062Z,10.74
2022-09-27T01:51:08.304Z,10.77
2022-09-27T01:53:52.160Z,10.82
2022-09-27T01:56:39.572Z,10.88
2022-09-27T01:59:25.654Z,10.93
2022-09-27T02:02:13.736Z,10.95
2022-09-27T02:05:18.056Z,10.95
2022-09-27T02:07:56.731Z,10.98
2022-09-27T02:10:38.064Z,11.02
2022-09-27T02:13:26.179Z,11.05
2022-09-27T02:16:12.137Z,11.09
2022-09-27T02:18:54.172Z,11.11
2022-09-27T02:21:26.217Z,11.12
2022-09-27T02:23:58.191Z,11.13
2022-09-27T02:26:47.632Z,11.09
2022-09-27T02:29:24.822Z,11.04
2022-09-27T02:31:54.187Z,10.99
2022-09-27T02:34:27.859Z,10.94
2022-09-27T02:36:56.762Z,10.92
2022-09-27T02:39:25.237Z,10.89
2022-09-27T02:42:03.620Z,10.89
2022-09-27T02:44:31.995Z,10.91
2022-09-27T02:47:22.358Z,10.94
2022-09-27T02:50:14.594Z,10.96
2022-09-27T02:53:08.095Z,10.95
2022-09-27T02:56:06.834Z,10.92
2022-09-27T02:59:09.753Z,10.88
2022-09-27T03:02:14.488Z,10.90
2022-09-27T03:05:05.022Z,10.92
2022-09-27T03:07:32.944Z,10.93
2022-09-27T03:10:00.767Z,10.97
2022-09-27T03:12:28.859Z,10.97
2022-09-27T03:14:58.900Z,10.96
2022-09-27T03:17:56.214Z,10.93
2022-09-27T03:20:42.787Z,10.94
2022-09-27T03:23:17.045Z,10.93
2022-09-27T03:25:46.376Z,10.95
2022-09-27T03:28:14.829Z,10.97
2022-09-27T03:30:45.487Z,10.99
2022-09-27T03:33:15.310Z,11.00
2022-09-27T03:35:48.019Z,11.00
2022-09-27T03:38:16.706Z,10.97
2022-09-27T03:40:44.835Z,10.98
2022-09-27T03:43:14.642Z,10.98
2022-09-27T03:45:45.311Z,10.99
2022-09-27T03:48:13.432Z,11.01
2022-09-27T03:50:41.635Z,11.07
2022-09-27T03:53:09.928Z,11.08
2022-09-27T03:55:37.777Z,11.11
2022-09-27T03:58:05.833Z,11.14
2022-09-27T04:00:41.190Z,11.11
2022-09-27T04:03:09.184Z,11.08
2022-09-27T04:05:40.198Z,11.06
2022-09-27T04:08:11.960Z,11.09
2022-09-27T04:10:39.860Z,11.10
2022-09-27T04:13:07.754Z,11.12
2022-09-27T04:15:43.223Z,11.09
2022-09-27T04:18:30.104Z,11.04
2022-09-27T04:21:27.810Z,11.02
2022-09-27T04:23:56.402Z,10.98
2022-09-27T04:26:25.938Z,10.96
2022-09-27T04:29:04.408Z,10.93
2022-09-27T04:31:33.708Z,10.91
2022-09-27T04:34:44.733Z,10.91
2022-09-27T04:37:14.109Z,10.90
2022-09-27T04:39:46.648Z,10.93
2022-09-27T04:42:14.536Z,10.95
2022-09-27T04:44:42.697Z,10.96
2022-09-27T04:47:10.627Z,10.96
2022-09-27T04:49:38.918Z,10.97
2022-09-27T04:52:06.740Z,10.97
2022-09-27T04:54:35.121Z,10.96
2022-09-27T04:57:12.816Z,10.96
2022-09-27T04:59:42.708Z,10.98
2022-09-27T05:02:13.372Z,10.99
2022-09-27T05:05:11.169Z,11.03
2022-09-27T05:07:41.937Z,11.04
2022-09-27T05:10:13.943Z,11.08
2022-09-27T05:12:41.825Z,11.09
2022-09-27T05:15:10.435Z,11.12
2022-09-27T05:17:58.791Z,11.09
2022-09-27T05:20:53.422Z,11.07
2022-09-27T05:23:30.118Z,11.11
2022-09-27T05:25:58.058Z,11.14
2022-09-27T05:28:25.984Z,11.17
2022-09-27T05:30:53.988Z,11.21
2022-09-27T05:33:22.734Z,11.20
2022-09-27T05:35:57.512Z,11.22
2022-09-27T05:38:30.188Z,11.27
2022-09-27T05:40:59.996Z,11.27
2022-09-27T05:43:29.007Z,11.29
2022-09-27T05:46:00.848Z,11.30
2022-09-27T05:48:30.385Z,11.30
2022-09-27T05:51:07.710Z,11.32
2022-09-27T05:53:38.105Z,11.32
2022-09-27T05:56:08.760Z,11.29
2022-09-27T05:59:02.189Z,11.32
2022-09-27T06:01:37.388Z,11.32
2022-09-27T06:04:23.847Z,11.36
2022-09-27T06:07:06.381Z,11.41
2022-09-27T06:09:34.214Z,11.51
2022-09-27T06:12:02.362Z,11.58
2022-09-27T06:14:30.423Z,11.62
2022-09-27T06:17:02.206Z,11.67
2022-09-27T06:19:33.840Z,11.71
2022-09-27T06:22:01.786Z,11.74
2022-09-27T06:24:38.521Z,11.76
2022-09-27T06:27:14.244Z,11.81
2022-09-27T06:29:56.490Z,11.85
2022-09-27T06:32:40.934Z,11.87
2022-09-27T06:35:32.131Z,11.87
2022-09-27T06:38:04.750Z,11.89
2022-09-27T06:40:33.205Z,11.89
2022-09-27T06:43:20.571Z,11.89
2022-09-27T06:46:07.366Z,11.95
2022-09-27T06:48:53.935Z,12.02
2022-09-27T06:51:23.027Z,12.07
2022-09-27T06:53:50.935Z,12.06
2022-09-27T06:56:19.628Z,12.05
2022-09-27T06:59:12.498Z,12.07
2022-09-27T07:01:44.230Z,12.08
2022-09-27T07:04:31.929Z,12.07
2022-09-27T07:07:23.001Z,12.06
2022-09-27T07:09:50.934Z,12.00
2022-09-27T07:12:21.244Z,11.99
2022-09-27T07:14:49.753Z,12.04
2022-09-27T07:17:19.275Z,12.08
2022-09-27T07:19:49.276Z,12.10
2022-09-27T07:22:17.059Z,12.12
2022-09-27T07:24:47.554Z,12.10
2022-09-27T07:27:16.333Z,12.14
2022-09-27T07:29:45.040Z,12.18
2022-09-27T07:32:13.393Z,12.16
2022-09-27T07:34:41.747Z,12.14
2022-09-27T07:37:09.643Z,12.15
2022-09-27T07:39:40.297Z,12.15
2022-09-27T07:42:08.249Z,12.19
2022-09-27T07:44:39.882Z,12.18
2022-09-27T07:47:28.788Z,12.20
2022-09-27T07:50:07.113Z,12.31
2022-09-27T07:53:05.479Z,12.36
2022-09-27T07:55:58.396Z,12.42
2022-09-27T07:58:30.691Z,12.46
2022-09-27T08:01:02.715Z,12.48
2022-09-27T08:03:31.735Z,12.48
2022-09-27T08:06:03.215Z,12.47
2022-09-27T08:08:31.705Z,12.50
2022-09-27T08:11:01.256Z,12.56
2022-09-27T08:13:29.636Z,12.61
2022-09-27T08:16:02.037Z,12.64
2022-09-27T08:18:37.998Z,12.72
2022-09-27T08:21:24.665Z,12.72
2022-09-27T08:24:11.837Z,12.69
2022-09-27T08:27:11.802Z,12.63
2022-09-27T08:29:59.089Z,12.60
2022-09-27T08:32:28.826Z,12.68
2022-09-27T08:34:57.237Z,12.74
2022-09-27T08:37:26.569Z,12.76
2022-09-27T08:39:54.840Z,12.85
2022-09-27T08:42:35.527Z,12.87
2022-09-27T08:45:12.671Z,12.92
2022-09-27T08:47:55.181Z,12.93
2022-09-27T08:50:28.669Z,12.98
2022-09-27T08:53:04.737Z,12.99
2022-09-27T08:55:39.834Z,13.07
2022-09-27T08:58:36.253Z,13.13
2022-09-27T09:01:16.176Z,13.24
2022-09-27T09:04:09.014Z,13.32
2022-09-27T09:06:44.185Z,13.38
2022-09-27T09:09:37.873Z,13.55
2022-09-27T09:12:46.593Z,13.76
2022-09-27T09:15:26.627Z,13.84
2022-09-27T09:18:09.349Z,13.72
2022-09-27T09:21:21.792Z,13.69
2022-09-27T09:24:03.033Z,13.75
2022-09-27T09:26:40.833Z,13.71
2022-09-27T09:29:39.383Z,13.62
2022-09-27T09:32:33.473Z,13.63
2022-09-27T09:35:06.541Z,13.64
2022-09-27T09:37:38.005Z,13.67
2022-09-27T09:40:27.352Z,13.68
2022-09-27T09:43:10.592Z,13.70
2022-09-27T09:45:45.996Z,13.68
2022-09-27T09:48:23.879Z,13.67
2022-09-27T09:50:54.231Z,13.72
2022-09-27T09:53:31.654Z,13.77
2022-09-27T09:56:05.883Z,13.75
2022-09-27T09:58:44.800Z,13.78
2022-09-27T10:01:40.582Z,13.74
2022-09-27T10:04:18.752Z,13.70
2022-09-27T10:06:49.703Z,13.62
2022-09-27T10:09:24.361Z,13.55
2022-09-27T10:12:10.987Z,13.52
2022-09-27T10:14:39.935Z,13.51
2022-09-27T10:17:11.234Z,13.52
2022-09-27T10:19:39.799Z,13.55
2022-09-27T10:22:19.401Z,13.52
2022-09-27T10:24:57.389Z,13.51
2022-09-27T10:27:55.649Z,13.61
2022-09-27T10:30:35.015Z,13.66
2022-09-27T10:33:19.141Z,13.71
2022-09-27T10:36:02.434Z,13.72
2022-09-27T10:38:32.715Z,13.80
2022-09-27T10:41:42.512Z,13.92
2022-09-27T10:44:26.190Z,14.05
2022-09-27T10:47:08.223Z,14.11
2022-09-27T10:50:08.075Z,14.18
2022-09-27T10:53:20.849Z,14.24
2022-09-27T10:55:57.103Z,14.33
2022-09-27T10:58:29.703Z,14.34
2022-09-27T11:01:06.161Z,14.45
2022-09-27T11:03:52.496Z,14.47
2022-09-27T11:06:24.136Z,14.52
2022-09-27T11:08:55.493Z,14.65
2022-09-27T11:11:28.458Z,14.68
2022-09-27T11:14:05.115Z,14.75
2022-09-27T11:16:41.888Z,14.76
2022-09-27T11:19:34.864Z,14.87
2022-09-27T11:22:29.792Z,14.96
2022-09-27T11:25:44.046Z,15.11
2022-09-27T11:28:42.713Z,15.22
2022-09-27T11:31:25.090Z,15.38
2022-09-27T11:34:15.732Z,15.58
2022-09-27T11:36:44.455Z,15.70
2022-09-27T11:39:24.193Z,15.81
2022-09-27T11:42:13.161Z,15.87
2022-09-27T11:45:34.108Z,16.05
2022-09-27T11:48:26.325Z,16.19
2022-09-27T11:51:03.742Z,16.32
2022-09-27T11:53:51.323Z,16.52
2022-09-27T11:56:39.899Z,16.57
2022-09-27T11:59:26.154Z,16.69
2022-09-27T12:02:19.363Z,16.91
2022-09-27T12:04:49.984Z,17.19
2022-09-27T12:07:45.140Z,17.32
2022-09-27T12:10:17.054Z,17.29
2022-09-27T12:12:51.686Z,17.27
2022-09-27T12:15:30.212Z,17.42
2022-09-27T12:18:28.120Z,17.59
2022-09-27T12:20:56.490Z,17.65
2022-09-27T12:23:44.592Z,17.79
2022-09-27T12:26:30.093Z,17.96
2022-09-27T12:29:21.635Z,18.01
2022-09-27T12:31:57.351Z,18.04
2022-09-27T12:34:48.275Z,17.88
2022-09-27T12:37:29.299Z,17.78
2022-09-27T12:40:07.605Z,17.82
2022-09-27T12:45:43.440Z,17.84
2022-09-27T12:48:23.058Z,17.86
2022-09-27T12:50:55.829Z,18.02
2022-09-27T12:53:30.614Z,18.07
2022-09-27T12:56:10.627Z,18.16
2022-09-27T12:59:00.355Z,18.36
2022-09-27T13:01:56.121Z,18.45
2022-09-27T13:04:34.066Z,18.39
2022-09-27T13:07:35.519Z,18.30
2022-09-27T13:10:15.266Z,18.08
2022-09-27T13:12:49.320Z,17.89
2022-09-27T13:15:21.844Z,17.73
2022-09-27T13:17:50.786Z,17.64
2022-09-27T13:20:31.415Z,17.54
2022-09-27T13:23:01.268Z,17.53
2022-09-27T13:25:50.613Z,17.60
2022-09-27T13:28:32.835Z,17.59
2022-09-27T13:31:04.149Z,17.56
2022-09-27T13:33:46.209Z,17.55
2022-09-27T13:36:24.553Z,17.46
2022-09-27T13:39:11.323Z,17.41
2022-09-27T13:42:07.231Z,17.38
2022-09-27T13:44:41.495Z,17.32
2022-09-27T13:47:37.673Z,17.26
2022-09-27T13:50:32.259Z,17.15
2022-09-27T13:53:19.368Z,17.04
2022-09-27T13:55:51.918Z,17.01
2022-09-27T13:58:39.541Z,17.02
2022-09-27T14:01:19.014Z,17.01
2022-09-27T14:03:56.013Z,16.95
2022-09-27T14:06:32.838Z,16.89
2022-09-27T14:09:18.005Z,16.83
2022-09-27T14:11:52.626Z,16.90
2022-09-27T14:14:27.417Z,16.88
2022-09-27T14:17:00.117Z,16.79
2022-09-27T14:19:29.167Z,16.72
2022-09-27T14:22:12.187Z,16.67
2022-09-27T14:24:53.105Z,16.59
2022-09-27T14:27:29.571Z,16.54
2022-09-27T14:30:17.088Z,16.47
2022-09-27T14:32:50.255Z,16.44
2022-09-27T14:35:44.013Z,16.42
2022-09-27T14:38:36.672Z,16.37
2022-09-27T14:41:07.601Z,16.25
2022-09-27T14:43:37.421Z,16.15
2022-09-27T14:46:07.714Z,16.08
2022-09-27T14:48:38.897Z,16.02
2022-09-27T14:51:15.037Z,15.97
2022-09-27T14:53:57.102Z,15.93
2022-09-27T14:56:28.112Z,15.87
2022-09-27T14:59:03.688Z,15.83
2022-09-27T15:01:33.251Z,15.80
2022-09-27T15:04:06.791Z,15.74
2022-09-27T15:06:38.811Z,15.67
2022-09-27T15:09:07.265Z,15.57
2022-09-27T15:11:35.301Z,15.50
2022-09-27T15:14:05.130Z,15.45
2022-09-27T15:16:33.897Z,15.43
2022-09-27T15:19:27.129Z,15.39
2022-09-27T15:21:57.369Z,15.37
2022-09-27T15:24:45.409Z,15.35
2022-09-27T15:27:22.070Z,15.33
2022-09-27T15:29:57.562Z,15.25
2022-09-27T15:32:27.991Z,15.20
2022-09-27T15:34:57.125Z,15.17
2022-09-27T15:37:34.218Z,15.14
2022-09-27T15:40:52.241Z,15.12
2022-09-27T15:43:35.127Z,15.08
2022-09-27T15:46:05.555Z,15.01
2022-09-27T15:48:35.601Z,14.95
2022-09-27T15:51:03.777Z,14.90
2022-09-27T15:53:34.659Z,14.87
2022-09-27T15:56:09.151Z,14.85
2022-09-27T15:58:37.481Z,14.81
2022-09-27T16:01:05.785Z,14.79
2022-09-27T16:03:34.409Z,14.74
2022-09-27T16:06:05.329Z,14.68
2022-09-27T16:08:33.218Z,14.61
2022-09-27T16:11:03.391Z,14.56
2022-09-27T16:13:33.202Z,14.54
2022-09-27T16:16:02.406Z,14.50
2022-09-27T16:18:31.045Z,14.46
2022-09-27T16:20:59.678Z,14.45
2022-09-27T16:23:27.704Z,14.42
2022-09-27T16:25:56.454Z,14.39
2022-09-27T16:28:24.245Z,14.36
2022-09-27T16:30:52.246Z,14.33
2022-09-27T16:33:20.170Z,14.30
2022-09-27T16:35:48.961Z,14.27
2022-09-27T16:38:17.815Z,14.23
2022-09-27T16:40:45.678Z,14.18
2022-09-27T16:43:13.475Z,14.11
2022-09-27T16:45:41.428Z,14.04
2022-09-27T16:48:09.188Z,13.98
2022-09-27T16:50:55.538Z,13.89
2022-09-27T16:53:23.681Z,13.76
2022-09-27T16:55:52.740Z,13.64
2022-09-27T16:58:20.650Z,13.52
2022-09-27T17:00:48.498Z,13.43
2022-09-27T17:03:16.626Z,13.32
2022-09-27T17:05:44.938Z,13.26
2022-09-27T17:08:12.688Z,13.18
2022-09-27T17:10:45.046Z,13.11
2022-09-27T17:13:13.491Z,13.03
2022-09-27T17:15:42.255Z,12.95
2022-09-27T17:18:13.046Z,12.88
2022-09-27T17:20:40.884Z,12.81
2022-09-27T17:23:08.678Z,12.76
2022-09-27T17:25:36.378Z,12.70
2022-09-27T17:28:04.472Z,12.64
2022-09-27T17:30:35.140Z,12.59
2022-09-27T17:33:04.566Z,12.55
2022-09-27T17:35:32.543Z,12.51
2022-09-27T17:38:01.013Z,12.48
2022-09-27T17:40:28.881Z,12.43
2022-09-27T17:42:56.920Z,12.40
2022-09-27T17:45:25.068Z,12.38
2022-09-27T17:48:13.556Z,12.35
2022-09-27T17:50:46.168Z,12.33
2022-09-27T17:53:13.966Z,12.31
2022-09-27T17:55:41.755Z,12.30
2022-09-27T17:58:09.625Z,12.29
2022-09-27T18:00:37.559Z,12.29
2022-09-27T18:03:05.454Z,12.27
2022-09-27T18:05:33.524Z,12.25
2022-09-27T18:08:01.764Z,12.23
2022-09-27T18:10:29.517Z,12.21
2022-09-27T18:12:57.358Z,12.20
2022-09-27T18:15:26.681Z,12.20
2022-09-27T18:17:58.346Z,12.20
2022-09-27T18:20:26.301Z,12.19
2022-09-27T18:22:54.753Z,12.19
2022-09-27T18:25:25.128Z,12.17
2022-09-27T18:27:55.684Z,12.16
2022-09-27T18:30:23.691Z,12.17
2022-09-27T18:32:52.858Z,12.17
2022-09-27T18:35:21.372Z,12.15
2022-09-27T18:37:49.317Z,12.14
2022-09-27T18:40:28.075Z,12.12
2022-09-27T18:43:06.665Z,12.10
2022-09-27T18:45:38.630Z,12.11
2022-09-27T18:48:06.652Z,12.11
2022-09-27T18:50:37.710Z,12.13
2022-09-27T18:53:05.590Z,12.14
2022-09-27T18:55:36.760Z,12.16
2022-09-27T18:58:05.002Z,12.17
2022-09-27T19:00:32.927Z,12.19
2022-09-27T19:03:01.359Z,12.23
2022-09-27T19:05:29.350Z,12.26
2022-09-27T19:07:57.050Z,12.28
2022-09-27T19:10:24.891Z,12.27
2022-09-27T19:12:56.715Z,12.27
2022-09-27T19:15:25.167Z,12.29
2022-09-27T19:17:53.261Z,12.30
2022-09-27T19:20:21.100Z,12.32
2022-09-27T19:22:49.039Z,12.33
2022-09-27T19:25:17.357Z,12.34
2022-09-27T19:27:45.543Z,12.34
2022-09-27T19:30:13.686Z,12.33
2022-09-27T19:32:41.555Z,12.33
2022-09-27T19:35:11.551Z,12.32
2022-09-27T19:37:40.221Z,12.30
2022-09-27T19:40:08.425Z,12.29
2022-09-27T19:42:36.229Z,12.28
2022-09-27T19:45:09.269Z,12.25
2022-09-27T19:47:39.340Z,12.24
2022-09-27T19:50:07.712Z,12.24
2022-09-27T19:52:36.229Z,12.22
2022-09-27T19:55:05.068Z,12.21
2022-09-27T19:57:33.084Z,12.22
2022-09-27T20:00:01.117Z,12.22
2022-09-27T20:02:29.223Z,12.22
2022-09-27T20:04:57.329Z,12.23
2022-09-27T20:07:25.430Z,12.25
2022-09-27T20:09:53.283Z,12.27
2022-09-27T20:12:23.678Z,12.26
2022-09-27T20:14:51.420Z,12.27
2022-09-27T20:17:19.344Z,12.30
2022-09-27T20:19:47.153Z,12.34
2022-09-27T20:22:14.858Z,12.39
2022-09-27T20:24:42.638Z,12.43
2022-09-27T20:27:10.493Z,12.43
2022-09-27T20:29:38.451Z,12.42
2022-09-27T20:34:54.641Z,12.35
2022-09-27T20:37:23.345Z,12.34
2022-09-27T20:39:52.620Z,12.31
2022-09-27T20:42:20.595Z,12.30
2022-09-27T20:44:51.944Z,12.33
2022-09-27T20:47:22.431Z,12.36
2022-09-27T20:49:51.011Z,12.38
2022-09-27T20:52:19.741Z,12.41
2022-09-27T20:54:47.677Z,12.41
2022-09-27T20:57:15.976Z,12.41
2022-09-27T20:59:43.913Z,12.39
2022-09-27T21:02:11.901Z,12.40
2022-09-27T21:04:39.799Z,12.42
2022-09-27T21:07:07.551Z,12.44
2022-09-27T21:09:38.195Z,12.47
2022-09-27T21:12:06.202Z,12.51
2022-09-27T21:14:34.398Z,12.54
2022-09-27T21:17:02.365Z,12.57
2022-09-27T21:19:30.796Z,12.59
2022-09-27T21:21:58.505Z,12.58
2022-09-27T21:24:26.388Z,12.62
2022-09-27T21:26:54.285Z,12.63
2022-09-27T21:29:22.433Z,12.66
2022-09-27T21:31:50.358Z,12.68
2022-09-27T21:34:18.462Z,12.70
2022-09-27T21:36:46.496Z,12.71
2022-09-27T21:39:15.479Z,12.73
2022-09-27T21:41:43.355Z,12.74
2022-09-27T21:44:11.649Z,12.75
2022-09-27T21:46:41.004Z,12.74
2022-09-27T21:49:09.119Z,12.74
2022-09-27T21:51:39.138Z,12.74
2022-09-27T21:54:12.442Z,12.72
2022-09-27T21:56:41.324Z,12.72
2022-09-27T21:59:14.127Z,12.73
2022-09-27T22:01:44.098Z,12.75
2022-09-27T22:04:12.999Z,12.77
2022-09-27T22:06:40.896Z,12.77
2022-09-27T22:09:12.621Z,12.77
2022-09-27T22:11:44.005Z,12.76
2022-09-27T22:14:13.485Z,12.74
2022-09-27T22:16:41.735Z,12.71
2022-09-27T22:19:11.599Z,12.71
2022-09-27T22:21:40.636Z,12.72
2022-09-27T22:24:15.246Z,12.74
2022-09-27T22:26:47.140Z,12.73
2022-09-27T22:29:15.004Z,12.74
2022-09-27T22:31:42.798Z,12.75
2022-09-27T22:34:20.860Z,12.75
2022-09-27T22:36:48.718Z,12.74
2022-09-27T22:39:16.573Z,12.74
2022-09-27T22:41:44.763Z,12.74
2022-09-27T22:44:12.656Z,12.74
2022-09-27T22:46:40.454Z,12.75
2022-09-27T22:49:08.919Z,12.77
2022-09-27T22:51:36.899Z,12.78
2022-09-27T22:54:05.136Z,12.77
2022-09-27T22:56:33.592Z,12.77
2022-09-27T22:59:01.292Z,12.80
2022-09-27T23:01:29.163Z,12.79
2022-09-27T23:03:58.338Z,12.79
2022-09-27T23:06:26.252Z,12.76
2022-09-27T23:08:55.125Z,12.75
2022-09-27T23:11:23.283Z,12.75
2022-09-27T23:13:51.332Z,12.74
2022-09-27T23:16:23.435Z,12.73
2022-09-27T23:18:55.493Z,12.72
2022-09-27T23:21:26.218Z,12.72
2022-09-27T23:23:56.393Z,12.72
2022-09-27T23:26:26.174Z,12.72
2022-09-27T23:29:01.462Z,12.72
2022-09-27T23:31:31.552Z,12.70
2022-09-27T23:34:02.866Z,12.70
2022-09-27T23:36:30.666Z,12.68
2022-09-27T23:39:00.660Z,12.66
2022-09-27T23:41:28.990Z,12.63
2022-09-27T23:43:57.551Z,12.60
2022-09-27T23:46:25.959Z,12.57
2022-09-27T23:48:53.983Z,12.51
2022-09-27T23:51:21.931Z,12.46
2022-09-27T23:53:50.473Z,12.42
2022-09-27T23:56:18.942Z,12.39
2022-09-27T23:58:47.063Z,12.37
